Aeroporto :
LOGIN :

Iscrizione | Disclaimer

   EN    FR    IT 

 










Sommario :    VFR   VFR Marginale   IFR   IFR Intensivo   IFR Molto Intensivo
Visibilità : 
Base nubi : 
>= 8 km
>= 3000ft
5 / 8 km
1000 / 3000 ft
1500m / 5 km
500 / 1000 ft
800 / 1500m
200 / 500 ft
< 800m
< 200 ft
Simboli :   Temporali  Nebbia  Neve Forte  Precipitazioni Forti  Vento > 20 kt
SIGMETs :   Varie  Temporali  Ghiacco  Turbolenza  Onda orograficha  Ceneri Vulcaniche






- Altitudine del aeroporto : 1300 ft
- Codice IATA : LIG


LFBL - Limoges

ULTIMO METAR :
  • 031300Z AUTO 22011KT 190V290 9999 ///CB 24/12 Q1005 TEMPO 4000 SHRA

METARs OBSOLETI :
  • 031230Z AUTO 27007KT 230V310 9999 FEW048/// SCT062/// ///CB 24/13 Q1006 TEMPO 4000 SHRA
  • 031200Z AUTO 26008KT 200V310 CAVOK 23/13 Q1006 TEMPO 4000 SHRA BKN030CB
  • 031130Z AUTO 27008KT 210V320 9999 FEW042/// SCT062/// BKN072/// ///CB 23/13 Q1007 TEMPO 4000 SHRA
  • 031100Z AUTO 27009KT 240V330 9999 SCT041/// SCT052/// ///CB 23/13 Q1007 TEMPO 4000 TSRA
  • 031030Z AUTO 27009KT 230V300 9999 VCTS FEW031/// SCT047/// BKN066/// ///CB 22/14 Q1008 TEMPO 4000 TSRA

TAF TAF LFBL
Valido dal 03 a 12 ore il 04 a 12 ore UTC


031100Z 0312/0412 25008KT 9999 SCT040TCU BKN070
TEMPO 0312/0321 -SHRA SCT035CB BKN045
PROB40
TEMPO 0312/0317 VRB12G30KT 4000 SHRA BKN030CB
TEMPO 0322/0401 CAVOK
TEMPO 0400/0405 BKN010
ATIS : +33 5 55 48 40 37



MetMap, La meteo Aeronautica in un colpo d'occhio ! - Copyright ORBIFLY Dicembre 2007 - Disclaimer

ORBIFLY MET'MAP TEAM :

Programmazione e sviluppo : Alexandra Zaïnal
Concezione : Baudouin d'Aumeries
Aiuto per la programmazione : Marc-Olivier Méhu
Supporto tecnico e logistico : Manuel Goepfert
Aiuto per la traduzione : Arnaldo La Scala

Contatto : metmap@orbifly.com




FONTI E CREDITI :

   NOAA